TLSO2: Arkansas River, Tulsa, OK

Data processed at Sun Oct 25 2020 22:29


All information presented herein is the property of the government of the United States of America and may be revised or deleted at any time without prior notice.
Dissemination of this information without the expressed written consent of the Public Affairs Office, Tulsa District U.S. Army Corps of Engineers is strictly prohibited.
These data are gathered electronically and, as presented, have not undergone any form of quality control. These data are not guaranteed to be valid or correct.
Go to home page.
Go to station list.
Go to home page.

Upstream stations:

Downstream station:
Previous Day
Next Day
Current Day
    
SHEF ID:       TLSO2     Arkansas River at Tulsa, OK
STATION TYPE:  
Regulating: Stage =    15.00, Flow =   105991

               PRECIP     STAGE  STAGE(2)  RIV-FLOW  WTR-TEMP   DIS-OXY  BAT-LOAD
                   in        ft        ft       cfs         F      mg/l      volt
              Ccp-Rev   Ccp-Rev   Ccp-Rev   Ccp-Rev   Ccp-Rev   Ccp-Rev   Ccp-Rev
(US/Central)
10/25 00:00      0.00      1.32      ----      1196     59.99      8.33     12.65
10/25 01:00      0.00      1.26      ----      1094     59.74      8.33     12.65
10/25 02:00      0.00      1.19      ----       983     59.38      8.28     12.65
10/25 03:00      0.00      1.13      ----       893     59.14      8.08     12.57
10/25 04:00      0.00      1.08      ----       822     58.86      8.09     12.57
10/25 05:00      0.00      1.03      ----       755     58.55      7.94     12.57
10/25 06:00      0.00      0.99      ----       704     58.30      8.10     12.49
10/25 07:00      0.00      0.95      ----       655     58.06      8.02     12.49
10/25 08:00      0.00      0.91      ----       608     57.61      7.85     12.49
10/25 09:00      0.00      0.87      ----       564     57.36      8.26     12.81
10/25 10:00      0.00      0.86      ----       553     57.33      8.47     13.21
10/25 11:00      0.00      0.83      ----       521     57.52      8.55     13.53
10/25 12:00      0.00      0.80      ----       491     57.81      9.10     13.84
10/25 13:00      0.00      0.79      ----       481     58.06      9.06     13.68
10/25 14:00      0.00      0.77      ----       462     58.24      9.15     13.68
10/25 15:00      0.00      0.76      ----       452     58.32      9.24     13.44
10/25 16:00      0.00      0.90      ----       597     58.03      9.15     13.37
10/25 17:00      0.00      1.42      ----      1378     57.92      9.58     13.29
10/25 18:00      0.00      1.68      ----      1930     57.78      9.46     13.21
10/25 19:00      0.00      1.75      ----      2099     57.72      9.68     12.97
10/25 20:00      0.00      1.69      ----      1954     57.36      9.34     12.81
10/25 21:00      0.00      1.59      ----      1726     57.24      9.25     12.73
10/25 22:00      ----      ----      ----      ----      ----      ----      ----
10/25 23:00      ----      ----      ----      ----      ----      ----      ----